Barking Sands Airport Kekaha US
ICAO: PHBK
IATA:
Category: Medium
Scheduled Services:

Elevation: 23 ft
TransAlt. 18000 ft.

Airport Communications:
HONOLULU CNTR:126.5
RANGE OUTRIDER:32.285
TWR:126.2
UNICOM:122.8

PHBK Zoom In..

If you have problems with the map follow the link
https://www.worldairports.se/pages/airport.php?
ICAO=PHBK

Runways:

(A) RW 16 length 6002 ft width 146 ft
---- / hdg 160

(B) RW 34 length 6002 ft width 146 ft
---- / hdg 340

Location; PHBK
Day. 18 / Time. 21.56 Zulu
* Altimeter: 30.07
* Temperature: 27° c. 80.6°f.
* Wind from: 010° Speed 14 kn.
Dewpoint: 17° c.
Visibility: 10 Statute Miles.
Clouds: Clear (automated report).

PHBK 182156Z AUTO 01014KT 10SM CLR 27/17 A3007 RMK AO2 SLP185 T02670167


Wind From 010°
Speed 14 kn.

 
 
jpsmedia.com for Web Design worldairports.se 2019   terms of use